Time;durP1;ratioP1;P1;durP2;ratioP2;P2;SDS_P1;SDS_P2;PMS_P1;PMS_P2;Temp;Humidity;BMP_temperature;BMP_pressure;BME280_temperature;BME280_humidity;BME280_pressure;Samples;Min_cycle;Max_cycle;Signal;HPM_P1;HPM_P2
2023/08/05 00:00:37;;;;;;;;;;;14.30;99.90;;;;;;5052135;28;20411;-44
2023/08/05 00:03:04;;;;;;;;;;;14.30;99.90;;;;;;5034676;28;19929;-44
2023/08/05 00:05:30;;;;;;;;;;;14.30;99.90;;;;;;5033812;28;19929;-44
2023/08/05 00:07:57;;;;;;;;;;;14.30;99.90;;;;;;5038683;28;20396;-45
2023/08/05 00:10:24;;;;;;;;;;;14.30;99.90;;;;;;5032699;28;19925;-44
2023/08/05 00:12:52;;;;;;;;;;;14.30;99.90;;;;;;5047555;28;19937;-44
2023/08/05 00:15:19;;;;;;;;;;;14.30;99.90;;;;;;5035529;28;19925;-45
2023/08/05 00:17:45;;;;;;;;;;;14.30;99.90;;;;;;5046633;28;19963;-44
2023/08/05 00:20:12;;;;;;;;;;;14.30;99.90;;;;;;5033181;28;19929;-44
2023/08/05 00:22:39;;;;;;;;;;;14.30;99.90;;;;;;5036255;28;19925;-44
2023/08/05 00:25:06;;;;;;;;;;;14.30;99.90;;;;;;5048741;28;19925;-45
2023/08/05 00:27:33;;;;;;;;;;;14.30;99.90;;;;;;5051264;28;19924;-43
2023/08/05 00:30:01;;;;;;;;;;;14.30;99.90;;;;;;5037234;28;20351;-44
2023/08/05 00:32:27;;;;;;;;;;;14.20;99.90;;;;;;5039244;28;19925;-44
2023/08/05 00:34:54;;;;;;;;;;;14.30;99.90;;;;;;5034225;28;20184;-44
2023/08/05 00:37:21;;;;;;;;;;;14.30;99.90;;;;;;5033372;28;19925;-45
2023/08/05 00:39:47;;;;;;;;;;;14.20;99.90;;;;;;5033452;28;19932;-44
2023/08/05 00:42:18;;;;;;;;;;;14.20;99.90;;;;;;5033155;28;19929;-44
2023/08/05 00:44:45;;;;;;;;;;;14.20;99.90;;;;;;4991965;28;20412;-44
2023/08/05 00:47:13;;;;;;;;;;;14.20;99.90;;;;;;4991231;28;19929;-45
2023/08/05 00:49:39;;;;;;;;;;;14.20;99.90;;;;;;4991703;28;19933;-43
2023/08/05 00:52:06;;;;;;;;;;;14.20;99.90;;;;;;4994608;28;19925;-44
2023/08/05 00:54:36;;;;;;;;;;;14.20;99.90;;;;;;5002524;28;19933;-44
2023/08/05 00:57:03;;;;;;;;;;;14.20;99.90;;;;;;4973564;28;19926;-45
2023/08/05 00:59:30;;;;;;;;;;;14.20;99.90;;;;;;4989192;28;20385;-44
2023/08/05 01:01:57;;;;;;;;;;;14.20;99.90;;;;;;4990412;28;19933;-44
2023/08/05 01:04:25;;;;;;;;;;;14.20;99.90;;;;;;5003698;28;19975;-45
2023/08/05 01:06:51;;;;;;;;;;;14.20;99.90;;;;;;4988458;28;19945;-43
2023/08/05 01:09:18;;;;;;;;;;;14.30;99.90;;;;;;4990492;28;19945;-44
2023/08/05 01:11:45;;;;;;;;;;;14.20;99.90;;;;;;4992297;28;19929;-44
2023/08/05 01:14:11;;;;;;;;;;;14.30;99.90;;;;;;4996991;28;19976;-44
2023/08/05 01:16:38;;;;;;;;;;;14.30;99.90;;;;;;4991981;28;19980;-44
2023/08/05 01:19:05;;;;;;;;;;;14.20;99.90;;;;;;4991303;28;19930;-44
2023/08/05 01:21:36;;;;;;;;;;;14.20;99.90;;;;;;4993574;28;20443;-44
2023/08/05 01:24:06;;;;;;;;;;;14.20;99.90;;;;;;4991276;28;19933;-44
2023/08/05 01:26:34;;;;;;;;;;;14.20;99.90;;;;;;4991184;28;19925;-44
2023/08/05 01:29:01;;;;;;;;;;;14.10;99.90;;;;;;4990992;28;19935;-44
2023/08/05 01:31:28;;;;;;;;;;;14.10;99.90;;;;;;4991953;28;19933;-44
2023/08/05 01:33:55;;;;;;;;;;;14.10;99.90;;;;;;4991499;28;20195;-44
2023/08/05 01:36:21;;;;;;;;;;;14.10;99.90;;;;;;4994736;28;20425;-44
2023/08/05 01:38:48;;;;;;;;;;;14.00;99.90;;;;;;4995818;28;19926;-44
2023/08/05 01:41:15;;;;;;;;;;;14.00;99.90;;;;;;4990753;28;19930;-44
2023/08/05 01:43:43;;;;;;;;;;;13.90;99.90;;;;;;5018026;28;19978;-44
2023/08/05 01:46:10;;;;;;;;;;;13.90;99.90;;;;;;5031431;28;19925;-44
2023/08/05 01:48:37;;;;;;;;;;;13.90;99.90;;;;;;5043477;28;19925;-44
2023/08/05 01:51:03;;;;;;;;;;;13.90;99.90;;;;;;5047014;28;19924;-42
2023/08/05 01:53:30;;;;;;;;;;;13.80;99.90;;;;;;5045912;28;19968;-42
2023/08/05 01:55:56;;;;;;;;;;;13.80;99.90;;;;;;5035590;28;20368;-44
2023/08/05 01:58:23;;;;;;;;;;;13.80;99.90;;;;;;5048097;28;19975;-42
2023/08/05 02:00:51;;;;;;;;;;;13.80;99.90;;;;;;5050982;28;19979;-43
2023/08/05 02:03:18;;;;;;;;;;;13.70;99.90;;;;;;5042916;28;19926;-44
2023/08/05 02:05:45;;;;;;;;;;;13.70;99.90;;;;;;5033315;28;20323;-44
2023/08/05 02:08:11;;;;;;;;;;;13.70;99.90;;;;;;5037155;28;19928;-43
2023/08/05 02:10:38;;;;;;;;;;;13.60;99.90;;;;;;5043081;28;19988;-43
2023/08/05 02:13:05;;;;;;;;;;;13.60;99.90;;;;;;5030387;28;19976;-43
2023/08/05 02:15:32;;;;;;;;;;;13.60;99.90;;;;;;5027028;28;19925;-44
2023/08/05 02:18:00;;;;;;;;;;;13.60;99.90;;;;;;5045019;28;19932;-43
2023/08/05 02:20:26;;;;;;;;;;;13.50;99.90;;;;;;5052780;28;19925;-43
2023/08/05 02:22:53;;;;;;;;;;;13.50;99.90;;;;;;5038754;28;19932;-43
2023/08/05 02:25:20;;;;;;;;;;;13.50;99.90;;;;;;5042410;28;19932;-43
2023/08/05 02:27:46;;;;;;;;;;;13.50;99.90;;;;;;5051207;28;20394;-45
2023/08/05 02:30:13;;;;;;;;;;;13.40;99.90;;;;;;5037527;28;19933;-44
2023/08/05 02:32:40;;;;;;;;;;;13.40;99.90;;;;;;5028651;28;19933;-43
2023/08/05 02:35:08;;;;;;;;;;;13.40;99.90;;;;;;5033009;28;20446;-44
2023/08/05 02:37:35;;;;;;;;;;;13.40;99.90;;;;;;5036361;28;20376;-44
2023/08/05 02:40:02;;;;;;;;;;;13.40;99.90;;;;;;5035464;28;20380;-44
2023/08/05 02:42:28;;;;;;;;;;;13.30;99.90;;;;;;5032279;28;19930;-45
2023/08/05 02:44:55;;;;;;;;;;;13.30;99.90;;;;;;5051181;28;20359;-45
2023/08/05 02:47:22;;;;;;;;;;;13.20;99.90;;;;;;5050533;28;19925;-44
2023/08/05 02:49:48;;;;;;;;;;;13.20;99.90;;;;;;5045240;28;19928;-44
2023/08/05 02:52:16;;;;;;;;;;;13.20;99.90;;;;;;5037391;28;19948;-44
2023/08/05 02:54:43;;;;;;;;;;;13.20;99.90;;;;;;5035254;28;19932;-44
2023/08/05 02:57:10;;;;;;;;;;;13.10;99.90;;;;;;5037409;28;19937;-44
2023/08/05 02:59:37;;;;;;;;;;;13.10;99.90;;;;;;5048804;28;19925;-45
2023/08/05 03:02:04;;;;;;;;;;;13.10;99.90;;;;;;5043543;28;19932;-44
2023/08/05 03:04:30;;;;;;;;;;;13.10;99.90;;;;;;5047166;28;19933;-44
2023/08/05 03:06:57;;;;;;;;;;;13.10;99.90;;;;;;5036272;28;19968;-43
2023/08/05 03:09:25;;;;;;;;;;;13.00;99.90;;;;;;5044265;28;20376;-43
2023/08/05 03:11:52;;;;;;;;;;;13.00;99.90;;;;;;5033653;28;19955;-44
2023/08/05 03:14:19;;;;;;;;;;;13.00;99.90;;;;;;5033177;28;19925;-42
2023/08/05 03:16:45;;;;;;;;;;;13.00;99.90;;;;;;5036762;28;19952;-43
2023/08/05 03:19:12;;;;;;;;;;;12.90;99.90;;;;;;5037107;28;19995;-43
2023/08/05 03:21:39;;;;;;;;;;;12.90;99.90;;;;;;5038732;28;20373;-43
2023/08/05 03:24:05;;;;;;;;;;;12.90;99.90;;;;;;5034481;28;19971;-43
2023/08/05 03:26:33;;;;;;;;;;;12.90;99.90;;;;;;5036062;28;19925;-44
2023/08/05 03:29:00;;;;;;;;;;;12.90;99.90;;;;;;5033048;28;19925;-44
2023/08/05 03:31:27;;;;;;;;;;;12.90;99.90;;;;;;5040631;28;19933;-43
2023/08/05 03:33:53;;;;;;;;;;;12.90;99.90;;;;;;5045408;28;19931;-43
2023/08/05 03:36:20;;;;;;;;;;;12.90;99.90;;;;;;5039774;28;19929;-44
2023/08/05 03:38:47;;;;;;;;;;;13.00;99.90;;;;;;5049989;28;19924;-43
2023/08/05 03:41:13;;;;;;;;;;;13.00;99.90;;;;;;5046844;28;19925;-44
2023/08/05 03:43:41;;;;;;;;;;;13.00;99.90;;;;;;5049179;28;19940;-43
2023/08/05 03:46:08;;;;;;;;;;;13.00;99.90;;;;;;5037794;28;19925;-44
2023/08/05 03:48:35;;;;;;;;;;;13.00;99.90;;;;;;5043005;28;19940;-44
2023/08/05 03:51:01;;;;;;;;;;;13.00;99.90;;;;;;5048246;28;19929;-43
2023/08/05 03:53:28;;;;;;;;;;;13.10;99.90;;;;;;5036417;28;20418;-43
2023/08/05 03:55:55;;;;;;;;;;;13.10;99.90;;;;;;5047119;28;19941;-43
2023/08/05 03:58:23;;;;;;;;;;;13.10;99.90;;;;;;5050303;28;20489;-44
2023/08/05 04:00:51;;;;;;;;;;;13.10;99.90;;;;;;5040008;28;19925;-43
2023/08/05 04:03:17;;;;;;;;;;;13.10;99.90;;;;;;5036806;28;19925;-43
2023/08/05 04:05:44;;;;;;;;;;;13.20;99.90;;;;;;5033485;28;20300;-43
2023/08/05 04:08:11;;;;;;;;;;;13.20;99.90;;;;;;5045884;28;19935;-43
2023/08/05 04:10:40;;;;;;;;;;;13.20;99.90;;;;;;5038915;28;19931;-43
2023/08/05 04:13:11;;;;;;;;;;;13.20;99.90;;;;;;5044508;28;20376;-43
2023/08/05 04:15:38;;;;;;;;;;;13.30;99.90;;;;;;5032919;28;19925;-43
2023/08/05 04:18:06;;;;;;;;;;;13.30;99.90;;;;;;5049960;28;19987;-43
2023/08/05 04:20:34;;;;;;;;;;;13.20;99.90;;;;;;5045838;28;19932;-44
2023/08/05 04:23:01;;;;;;;;;;;13.30;99.90;;;;;;5045502;28;20099;-44
2023/08/05 04:25:29;;;;;;;;;;;13.30;99.90;;;;;;5037258;28;19961;-44
2023/08/05 04:27:56;;;;;;;;;;;13.30;99.90;;;;;;5033449;28;20384;-44
2023/08/05 04:30:23;;;;;;;;;;;13.30;99.90;;;;;;5036535;28;19988;-44
2023/08/05 04:32:50;;;;;;;;;;;13.30;99.90;;;;;;5035328;28;20384;-44
2023/08/05 04:35:18;;;;;;;;;;;13.40;99.90;;;;;;5032984;28;20016;-45
2023/08/05 04:37:45;;;;;;;;;;;13.30;99.90;;;;;;5044846;28;19924;-45
2023/08/05 04:40:12;;;;;;;;;;;13.40;99.90;;;;;;5047512;28;19948;-43
2023/08/05 04:42:38;;;;;;;;;;;13.40;99.90;;;;;;5049256;28;20281;-43
2023/08/05 04:45:06;;;;;;;;;;;13.40;99.90;;;;;;5041815;28;20273;-43
2023/08/05 04:47:32;;;;;;;;;;;13.40;99.90;;;;;;5050671;28;19925;-43
2023/08/05 04:49:59;;;;;;;;;;;13.40;99.90;;;;;;5041687;28;19932;-43
2023/08/05 04:52:27;;;;;;;;;;;13.40;99.90;;;;;;5036507;28;20391;-43
2023/08/05 04:54:54;;;;;;;;;;;13.40;99.90;;;;;;5038414;28;19928;-43
2023/08/05 04:57:21;;;;;;;;;;;13.40;99.90;;;;;;5047199;28;19936;-44
2023/08/05 04:59:48;;;;;;;;;;;13.50;99.90;;;;;;5034627;28;20384;-43
2023/08/05 05:02:14;;;;;;;;;;;13.50;99.90;;;;;;5028999;28;19929;-43
2023/08/05 05:04:41;;;;;;;;;;;13.50;99.90;;;;;;5044145;28;19931;-44
2023/08/05 05:07:08;;;;;;;;;;;13.60;99.90;;;;;;5040460;28;20388;-43
2023/08/05 05:09:36;;;;;;;;;;;13.60;99.90;;;;;;5034569;28;19929;-44
2023/08/05 05:12:03;;;;;;;;;;;13.70;99.90;;;;;;5033603;28;19929;-44
2023/08/05 05:14:31;;;;;;;;;;;13.70;99.90;;;;;;5038899;28;19933;-43
2023/08/05 05:16:58;;;;;;;;;;;13.80;99.90;;;;;;5045698;28;19925;-43
2023/08/05 05:19:25;;;;;;;;;;;13.80;99.90;;;;;;5038182;28;19929;-42
2023/08/05 05:21:51;;;;;;;;;;;13.90;99.90;;;;;;5057611;28;19925;-43
2023/08/05 05:24:18;;;;;;;;;;;14.00;99.90;;;;;;5038693;28;19969;-42
2023/08/05 05:26:46;;;;;;;;;;;14.00;99.90;;;;;;5038980;28;19929;-43
2023/08/05 05:29:13;;;;;;;;;;;14.10;99.90;;;;;;5047016;28;19992;-43
2023/08/05 05:31:40;;;;;;;;;;;14.10;99.90;;;;;;5034686;28;19932;-43
2023/08/05 05:34:06;;;;;;;;;;;14.20;99.90;;;;;;5042590;28;20447;-43
2023/08/05 05:36:33;;;;;;;;;;;14.30;99.90;;;;;;5040667;28;19932;-43
2023/08/05 05:39:00;;;;;;;;;;;14.40;99.90;;;;;;5031051;28;20400;-43
2023/08/05 05:41:26;;;;;;;;;;;14.40;99.90;;;;;;5017842;28;19941;-44
2023/08/05 05:43:55;;;;;;;;;;;14.50;99.90;;;;;;5034230;28;19925;-44
2023/08/05 05:46:22;;;;;;;;;;;14.50;99.90;;;;;;5040088;28;19925;-43
2023/08/05 05:48:49;;;;;;;;;;;14.50;99.90;;;;;;5034737;28;19925;-42
2023/08/05 05:51:16;;;;;;;;;;;14.50;99.90;;;;;;5031288;28;19925;-44
2023/08/05 05:53:42;;;;;;;;;;;14.60;99.90;;;;;;5030695;28;19925;-44
2023/08/05 05:56:09;;;;;;;;;;;14.60;99.90;;;;;;5035419;28;20296;-44
2023/08/05 05:58:36;;;;;;;;;;;14.60;99.90;;;;;;5033853;28;20437;-44
2023/08/05 06:01:04;;;;;;;;;;;14.70;99.90;;;;;;5031419;28;19932;-44
2023/08/05 06:03:33;;;;;;;;;;;14.70;99.90;;;;;;5034433;28;19932;-43
2023/08/05 06:06:00;;;;;;;;;;;14.80;99.90;;;;;;5044955;28;21280;-43
2023/08/05 06:08:26;;;;;;;;;;;14.90;99.90;;;;;;5033626;28;19959;-43
2023/08/05 06:10:53;;;;;;;;;;;14.90;99.90;;;;;;5041848;28;19928;-44
2023/08/05 06:13:20;;;;;;;;;;;15.00;99.90;;;;;;5046854;28;19951;-44
2023/08/05 06:15:47;;;;;;;;;;;15.20;99.90;;;;;;5033183;28;19947;-43
2023/08/05 06:18:15;;;;;;;;;;;15.30;99.90;;;;;;5042447;28;19925;-43
2023/08/05 06:20:42;;;;;;;;;;;15.40;99.90;;;;;;5039431;28;19980;-43
2023/08/05 06:23:08;;;;;;;;;;;15.40;99.90;;;;;;5036256;28;19925;-43
2023/08/05 06:25:35;;;;;;;;;;;15.50;99.90;;;;;;5042593;28;19924;-43
2023/08/05 06:28:02;;;;;;;;;;;15.60;99.90;;;;;;5036657;28;19925;-43
2023/08/05 06:30:28;;;;;;;;;;;15.80;99.90;;;;;;5028577;28;19929;-43
2023/08/05 06:32:55;;;;;;;;;;;15.90;99.90;;;;;;5031826;28;20324;-43
2023/08/05 06:35:23;;;;;;;;;;;16.00;99.90;;;;;;5036356;28;19936;-44
2023/08/05 06:37:50;;;;;;;;;;;16.00;99.90;;;;;;5029841;28;19979;-43
2023/08/05 06:40:17;;;;;;;;;;;16.00;99.90;;;;;;5034494;28;19931;-44
2023/08/05 06:42:43;;;;;;;;;;;16.00;99.90;;;;;;5046355;28;19925;-43
2023/08/05 06:45:10;;;;;;;;;;;16.10;99.90;;;;;;5028563;28;19925;-43
2023/08/05 06:47:37;;;;;;;;;;;16.10;99.90;;;;;;5031066;28;19991;-43
2023/08/05 06:50:06;;;;;;;;;;;16.10;99.90;;;;;;5028586;28;19925;-43
2023/08/05 06:52:34;;;;;;;;;;;16.10;99.90;;;;;;5033446;28;20030;-44
2023/08/05 06:55:02;;;;;;;;;;;16.20;99.90;;;;;;5033995;28;19971;-44
2023/08/05 06:57:29;;;;;;;;;;;16.20;99.90;;;;;;5024443;28;19929;-44
2023/08/05 06:59:55;;;;;;;;;;;16.30;99.90;;;;;;5027334;28;20351;-43
2023/08/05 07:02:22;;;;;;;;;;;16.30;99.90;;;;;;5031852;28;19929;-42
2023/08/05 07:04:49;;;;;;;;;;;16.40;99.90;;;;;;5031828;28;20446;-43
2023/08/05 07:07:15;;;;;;;;;;;16.40;99.90;;;;;;5031422;28;19933;-43
2023/08/05 07:09:43;;;;;;;;;;;16.40;99.90;;;;;;5043262;28;20015;-43
2023/08/05 07:12:10;;;;;;;;;;;16.50;99.90;;;;;;5041217;28;19971;-44
2023/08/05 07:14:38;;;;;;;;;;;16.60;99.90;;;;;;5036153;28;19932;-43
2023/08/05 07:17:05;;;;;;;;;;;16.60;99.90;;;;;;5035185;28;20320;-43
2023/08/05 07:19:31;;;;;;;;;;;16.60;99.90;;;;;;5034790;28;20204;-43
2023/08/05 07:21:58;;;;;;;;;;;16.60;99.90;;;;;;5036780;28;19933;-43
2023/08/05 07:24:25;;;;;;;;;;;16.60;99.90;;;;;;5034219;28;19979;-43
2023/08/05 07:26:53;;;;;;;;;;;16.70;99.90;;;;;;5034144;28;19925;-44
2023/08/05 07:29:19;;;;;;;;;;;16.70;99.90;;;;;;5028692;28;19928;-43
2023/08/05 07:31:46;;;;;;;;;;;16.80;99.90;;;;;;5031871;28;19925;-43
2023/08/05 07:34:13;;;;;;;;;;;16.80;99.90;;;;;;5023381;28;19933;-43
2023/08/05 07:36:41;;;;;;;;;;;16.80;99.90;;;;;;5036530;28;19976;-42
2023/08/05 07:39:08;;;;;;;;;;;16.90;99.90;;;;;;5036148;28;20117;-42
2023/08/05 07:41:36;;;;;;;;;;;16.90;99.90;;;;;;5033368;28;20383;-43
2023/08/05 07:44:05;;;;;;;;;;;16.90;99.90;;;;;;5032490;28;19925;-43
2023/08/05 07:46:35;;;;;;;;;;;17.00;99.90;;;;;;5037312;28;20327;-43
2023/08/05 07:49:03;;;;;;;;;;;17.00;99.90;;;;;;5033165;28;19925;-42
2023/08/05 07:51:30;;;;;;;;;;;17.00;99.90;;;;;;5032479;28;19979;-43
2023/08/05 07:53:57;;;;;;;;;;;17.00;99.90;;;;;;5032052;28;19986;-44
2023/08/05 07:56:24;;;;;;;;;;;17.00;99.90;;;;;;5037783;28;19925;-44
2023/08/05 07:58:51;;;;;;;;;;;17.10;99.90;;;;;;5033383;28;19925;-43
2023/08/05 08:01:22;;;;;;;;;;;17.10;99.90;;;;;;5033606;28;20350;-43
2023/08/05 08:03:51;;;;;;;;;;;17.20;99.90;;;;;;5027921;28;19925;-44
2023/08/05 08:06:18;;;;;;;;;;;17.20;99.90;;;;;;5030130;28;20722;-42
2023/08/05 08:08:45;;;;;;;;;;;17.20;99.90;;;;;;5031791;28;19925;-43
2023/08/05 08:11:12;;;;;;;;;;;17.30;99.90;;;;;;5032478;28;20292;-43
2023/08/05 08:13:38;;;;;;;;;;;17.30;99.90;;;;;;5032631;28;19932;-44
2023/08/05 08:16:05;;;;;;;;;;;17.40;99.90;;;;;;5051536;28;19929;-44
2023/08/05 08:18:33;;;;;;;;;;;17.50;99.90;;;;;;5033898;28;20403;-43
2023/08/05 08:21:00;;;;;;;;;;;17.60;99.90;;;;;;5031705;28;20045;-43
2023/08/05 08:23:26;;;;;;;;;;;17.70;99.90;;;;;;5032082;28;19925;-44
2023/08/05 08:25:53;;;;;;;;;;;17.80;99.90;;;;;;5042878;28;19979;-43
2023/08/05 08:28:20;;;;;;;;;;;17.90;99.90;;;;;;5033441;28;19936;-43
2023/08/05 08:30:54;;;;;;;;;;;17.90;99.90;;;;;;5037955;28;19929;-44
2023/08/05 08:33:20;;;;;;;;;;;17.90;99.90;;;;;;5032703;28;19929;-43
2023/08/05 08:35:49;;;;;;;;;;;18.00;99.90;;;;;;5031108;28;19925;-44
2023/08/05 08:38:15;;;;;;;;;;;18.00;99.90;;;;;;5033099;28;19925;-42
2023/08/05 08:40:46;;;;;;;;;;;18.10;99.90;;;;;;5030259;28;19983;-44
2023/08/05 08:43:12;;;;;;;;;;;18.20;99.90;;;;;;5032014;28;19979;-44
2023/08/05 08:45:39;;;;;;;;;;;18.20;99.90;;;;;;5033841;28;20273;-43
2023/08/05 08:48:06;;;;;;;;;;;18.30;99.90;;;;;;5033741;28;19953;-43
2023/08/05 08:50:32;;;;;;;;;;;18.30;99.90;;;;;;5033529;28;19925;-43
2023/08/05 08:53:00;;;;;;;;;;;18.30;99.90;;;;;;5052065;28;19928;-44
2023/08/05 08:55:27;;;;;;;;;;;18.40;99.90;;;;;;5050847;28;19924;-43
2023/08/05 08:57:54;;;;;;;;;;;18.50;99.90;;;;;;5046467;28;20002;-43
2023/08/05 09:00:20;;;;;;;;;;;18.60;99.90;;;;;;5047040;28;19925;-43
2023/08/05 09:02:47;;;;;;;;;;;18.70;99.90;;;;;;5027967;28;19929;-43
2023/08/05 09:05:14;;;;;;;;;;;18.90;99.90;;;;;;5039539;28;19924;-43
2023/08/05 09:07:40;;;;;;;;;;;19.10;99.90;;;;;;5028960;28;19947;-43
2023/08/05 09:10:09;;;;;;;;;;;19.20;99.90;;;;;;5030680;28;20342;-44
2023/08/05 09:12:36;;;;;;;;;;;19.20;99.90;;;;;;5029508;28;20380;-43
2023/08/05 09:15:02;;;;;;;;;;;19.20;99.90;;;;;;5031851;28;19925;-44
2023/08/05 09:17:37;;;;;;;;;;;19.20;99.90;;;;;;5029619;28;19955;-42
2023/08/05 09:20:04;;;;;;;;;;;19.20;99.90;;;;;;5030242;28;20293;-43
2023/08/05 09:22:31;;;;;;;;;;;19.20;99.90;;;;;;5030245;28;20051;-44
2023/08/05 09:25:00;;;;;;;;;;;19.30;99.90;;;;;;5039160;28;19925;-43
2023/08/05 09:27:28;;;;;;;;;;;19.30;99.90;;;;;;5039505;28;19929;-44
2023/08/05 09:29:55;;;;;;;;;;;19.40;99.90;;;;;;5050384;28;19947;-43
2023/08/05 09:32:22;;;;;;;;;;;19.50;99.90;;;;;;5013963;28;19925;-43
2023/08/05 09:34:50;;;;;;;;;;;19.70;99.90;;;;;;5028637;28;19929;-44
2023/08/05 09:37:17;;;;;;;;;;;19.90;99.90;;;;;;5037060;28;19931;-44
2023/08/05 09:39:45;;;;;;;;;;;20.10;99.90;;;;;;5031008;28;19947;-44
2023/08/05 09:42:23;;;;;;;;;;;20.40;99.90;;;;;;5031358;28;20403;-44
2023/08/05 09:44:52;;;;;;;;;;;20.60;99.90;;;;;;5042117;28;19956;-44
2023/08/05 09:47:23;;;;;;;;;;;20.70;99.90;;;;;;5028029;28;21247;-44
2023/08/05 09:49:50;;;;;;;;;;;20.70;99.90;;;;;;5029931;28;19925;-44
2023/08/05 09:52:17;;;;;;;;;;;20.60;99.90;;;;;;5028619;28;19925;-43
2023/08/05 09:54:47;;;;;;;;;;;20.50;99.90;;;;;;5029891;28;19979;-44
2023/08/05 09:57:14;;;;;;;;;;;20.50;99.90;;;;;;5027995;28;19929;-44
2023/08/05 09:59:42;;;;;;;;;;;20.50;99.90;;;;;;5033249;28;19925;-43
2023/08/05 10:02:12;;;;;;;;;;;20.60;99.90;;;;;;5027459;28;19992;-44
2023/08/05 10:04:39;;;;;;;;;;;20.80;99.90;;;;;;5029389;28;19929;-44
2023/08/05 10:07:06;;;;;;;;;;;20.90;99.90;;;;;;5024486;28;19925;-43
2023/08/05 10:09:32;;;;;;;;;;;21.00;99.90;;;;;;5026904;28;19948;-43
2023/08/05 10:11:59;;;;;;;;;;;21.10;99.90;;;;;;5028660;28;19925;-44
2023/08/05 10:14:26;;;;;;;;;;;21.20;99.90;;;;;;5028361;28;19936;-43
2023/08/05 10:16:53;;;;;;;;;;;21.30;99.90;;;;;;5031615;28;19929;-44
2023/08/05 10:19:28;;;;;;;;;;;21.40;99.90;;;;;;5029051;28;19929;-43
2023/08/05 10:22:04;;;;;;;;;;;21.50;99.90;;;;;;5030976;28;19971;-44
2023/08/05 10:24:33;;;;;;;;;;;21.70;99.90;;;;;;5031634;28;19932;-44
2023/08/05 10:27:00;;;;;;;;;;;21.70;99.90;;;;;;5033882;28;19925;-44
2023/08/05 10:29:27;;;;;;;;;;;21.70;99.90;;;;;;5030873;28;19925;-43
2023/08/05 10:32:07;;;;;;;;;;;21.60;99.90;;;;;;5031099;28;19929;-44
2023/08/05 10:34:35;;;;;;;;;;;21.60;99.90;;;;;;5044017;28;20331;-44
2023/08/05 10:37:03;;;;;;;;;;;21.50;99.90;;;;;;5035672;28;19925;-43
2023/08/05 10:39:42;;;;;;;;;;;21.40;99.90;;;;;;5046630;28;19936;-43
2023/08/05 10:42:18;;;;;;;;;;;21.40;99.90;;;;;;5033784;28;19925;-43
2023/08/05 10:44:44;;;;;;;;;;;21.50;99.90;;;;;;5031608;28;20247;-43
2023/08/05 10:47:11;;;;;;;;;;;21.50;99.90;;;;;;5034470;28;19979;-44
2023/08/05 10:49:39;;;;;;;;;;;21.40;99.90;;;;;;5040769;28;19929;-43
2023/08/05 10:52:08;;;;;;;;;;;21.30;99.90;;;;;;5054771;28;19932;-44
2023/08/05 10:54:35;;;;;;;;;;;21.30;99.90;;;;;;5039913;28;20392;-43
2023/08/05 10:57:03;;;;;;;;;;;21.40;99.90;;;;;;5032981;28;20277;-44
2023/08/05 10:59:46;;;;;;;;;;;21.40;99.90;;;;;;5033131;28;19929;-43
2023/08/05 11:02:21;;;;;;;;;;;21.40;99.90;;;;;;5033662;28;20406;-43
2023/08/05 11:04:49;;;;;;;;;;;21.40;99.90;;;;;;5035106;28;19925;-43
2023/08/05 11:07:16;;;;;;;;;;;21.50;99.90;;;;;;5034652;28;19925;-44
2023/08/05 11:09:43;;;;;;;;;;;21.50;99.90;;;;;;5037643;28;19932;-44
2023/08/05 11:12:10;;;;;;;;;;;21.60;99.90;;;;;;5031968;28;19937;-43
2023/08/05 11:14:36;;;;;;;;;;;21.70;99.90;;;;;;5034527;28;19925;-44
2023/08/05 11:17:06;;;;;;;;;;;21.70;99.90;;;;;;5034313;28;19925;-43
2023/08/05 11:19:48;;;;;;;;;;;21.70;99.90;;;;;;5033418;28;19925;-44
2023/08/05 11:22:16;;;;;;;;;;;21.70;99.90;;;;;;5031993;28;19929;-43
2023/08/05 11:24:42;;;;;;;;;;;21.70;99.90;;;;;;5043873;28;19925;-43
2023/08/05 11:27:09;;;;;;;;;;;21.60;99.90;;;;;;5031832;28;19932;-44
2023/08/05 11:29:36;;;;;;;;;;;21.50;99.90;;;;;;5047177;28;19971;-44
2023/08/05 11:32:03;;;;;;;;;;;21.50;99.90;;;;;;5023590;28;20346;-44
2023/08/05 11:34:29;;;;;;;;;;;21.40;99.90;;;;;;5033695;28;20323;-44
2023/08/05 11:36:59;;;;;;;;;;;21.30;99.90;;;;;;5031468;28;19925;-43
2023/08/05 11:39:27;;;;;;;;;;;21.30;99.90;;;;;;5030062;28;19979;-43
2023/08/05 11:41:54;;;;;;;;;;;21.20;99.90;;;;;;5031570;28;19929;-43
2023/08/05 11:44:20;;;;;;;;;;;21.00;99.90;;;;;;5033248;28;19925;-43
2023/08/05 11:46:47;;;;;;;;;;;20.90;99.90;;;;;;5034729;28;19991;-44
2023/08/05 11:49:14;;;;;;;;;;;20.80;99.90;;;;;;5031796;28;20282;-45
2023/08/05 11:51:45;;;;;;;;;;;20.70;99.90;;;;;;5033338;28;19925;-44
2023/08/05 11:54:11;;;;;;;;;;;20.60;99.90;;;;;;5033208;28;19925;-44
2023/08/05 11:56:39;;;;;;;;;;;20.60;99.90;;;;;;5032169;28;19975;-43
2023/08/05 11:59:06;;;;;;;;;;;20.60;99.90;;;;;;5037281;28;19925;-44
2023/08/05 12:01:35;;;;;;;;;;;20.70;99.90;;;;;;5033223;28;20260;-44
2023/08/05 12:04:09;;;;;;;;;;;20.90;99.90;;;;;;5043584;28;19925;-44
2023/08/05 12:06:35;;;;;;;;;;;20.90;99.90;;;;;;5044680;28;19926;-44
2023/08/05 12:09:02;;;;;;;;;;;21.10;99.90;;;;;;5044777;28;19925;-44
2023/08/05 12:11:29;;;;;;;;;;;21.10;99.90;;;;;;5039276;28;20004;-44
2023/08/05 12:14:00;;;;;;;;;;;21.20;99.90;;;;;;5053146;28;20043;-44
2023/08/05 12:16:29;;;;;;;;;;;21.30;99.90;;;;;;5051219;28;19924;-43
2023/08/05 12:18:56;;;;;;;;;;;21.30;99.90;;;;;;5051112;28;20312;-43
2023/08/05 12:21:23;;;;;;;;;;;21.40;99.90;;;;;;5022276;28;19937;-44
2023/08/05 12:23:49;;;;;;;;;;;21.30;99.90;;;;;;5048535;28;19925;-44
2023/08/05 12:26:16;;;;;;;;;;;21.20;99.90;;;;;;5041296;28;19942;-44
2023/08/05 12:28:43;;;;;;;;;;;21.20;99.90;;;;;;5053528;28;20295;-44
2023/08/05 12:31:13;;;;;;;;;;;21.20;99.90;;;;;;5034363;28;20396;-44
2023/08/05 12:33:39;;;;;;;;;;;21.20;99.90;;;;;;5030197;28;20027;-44
2023/08/05 12:36:06;;;;;;;;;;;21.30;99.90;;;;;;5032631;28;20372;-44
2023/08/05 12:38:33;;;;;;;;;;;21.30;99.90;;;;;;5031098;28;19988;-43
2023/08/05 12:40:59;;;;;;;;;;;21.30;99.90;;;;;;5031694;28;19925;-44
2023/08/05 12:43:26;;;;;;;;;;;21.20;99.90;;;;;;5043130;28;20289;-43
2023/08/05 12:45:53;;;;;;;;;;;21.10;99.90;;;;;;5035298;28;19932;-43
2023/08/05 12:48:22;;;;;;;;;;;21.10;99.90;;;;;;5012762;28;19926;-43
2023/08/05 12:50:51;;;;;;;;;;;21.00;99.90;;;;;;5025441;28;19925;-43
2023/08/05 12:53:17;;;;;;;;;;;20.90;99.90;;;;;;5041675;28;19925;-43
2023/08/05 12:55:44;;;;;;;;;;;20.80;99.90;;;;;;5037285;28;19979;-43
2023/08/05 12:58:11;;;;;;;;;;;20.80;99.90;;;;;;5032502;28;20422;-43
2023/08/05 13:00:37;;;;;;;;;;;20.80;99.90;;;;;;5025848;28;19969;-43
2023/08/05 13:03:04;;;;;;;;;;;20.80;99.90;;;;;;5030840;28;19979;-43
2023/08/05 13:05:32;;;;;;;;;;;20.80;99.90;;;;;;5035969;28;20153;-43
2023/08/05 13:07:59;;;;;;;;;;;20.80;99.90;;;;;;5051059;28;19925;-43
2023/08/05 13:10:25;;;;;;;;;;;20.80;99.90;;;;;;5067663;28;20372;-43
2023/08/05 13:12:52;;;;;;;;;;;20.80;99.90;;;;;;5051354;28;19932;-43
2023/08/05 13:15:19;;;;;;;;;;;20.80;99.90;;;;;;5039545;28;19931;-43
2023/08/05 13:17:45;;;;;;;;;;;20.80;99.90;;;;;;5051656;28;19924;-43
2023/08/05 13:20:12;;;;;;;;;;;20.80;99.90;;;;;;5033051;28;19936;-43
2023/08/05 13:22:40;;;;;;;;;;;20.80;99.90;;;;;;5031863;28;19925;-44
2023/08/05 13:25:07;;;;;;;;;;;20.70;99.90;;;;;;5048992;28;19929;-43
2023/08/05 13:27:34;;;;;;;;;;;20.70;99.90;;;;;;5048078;28;19925;-44
2023/08/05 13:30:01;;;;;;;;;;;20.70;99.90;;;;;;5051798;28;19925;-44
2023/08/05 13:32:27;;;;;;;;;;;20.70;99.90;;;;;;5050173;28;20011;-44
2023/08/05 13:34:54;;;;;;;;;;;20.70;99.90;;;;;;5050372;28;19986;-44
2023/08/05 13:37:20;;;;;;;;;;;20.70;99.90;;;;;;5049979;28;19932;-44
2023/08/05 13:39:50;;;;;;;;;;;20.60;99.90;;;;;;5032624;28;19933;-44
2023/08/05 13:42:17;;;;;;;;;;;20.70;99.90;;;;;;5032670;28;19925;-43
2023/08/05 13:44:44;;;;;;;;;;;20.60;99.90;;;;;;5048109;28;19979;-43
2023/08/05 13:47:10;;;;;;;;;;;20.60;99.90;;;;;;5042144;28;19925;-43
2023/08/05 13:49:37;;;;;;;;;;;20.60;99.90;;;;;;5032495;28;19929;-44
2023/08/05 13:52:04;;;;;;;;;;;20.60;99.90;;;;;;5033893;28;19971;-45
2023/08/05 13:54:31;;;;;;;;;;;20.60;99.90;;;;;;5049170;28;19924;-44
2023/08/05 13:56:59;;;;;;;;;;;20.60;99.90;;;;;;5052571;28;20407;-44
2023/08/05 13:59:25;;;;;;;;;;;20.60;99.90;;;;;;5049959;28;19986;-44
2023/08/05 14:01:52;;;;;;;;;;;20.60;99.90;;;;;;5051881;28;19933;-43
2023/08/05 14:04:19;;;;;;;;;;;20.60;99.90;;;;;;5048185;28;20421;-44
2023/08/05 14:06:45;;;;;;;;;;;20.60;99.90;;;;;;5051248;28;19932;-44
2023/08/05 14:09:12;;;;;;;;;;;20.60;99.90;;;;;;5049474;28;19938;-44
2023/08/05 14:11:39;;;;;;;;;;;20.60;99.90;;;;;;5044230;28;19956;-44
2023/08/05 14:14:10;;;;;;;;;;;20.60;99.90;;;;;;5032326;28;19932;-43
2023/08/05 14:16:38;;;;;;;;;;;20.50;99.90;;;;;;5033060;28;19933;-43